Time;durP1;ratioP1;P1;durP2;ratioP2;P2;SDS_P1;SDS_P2;PMS_P1;PMS_P2;Temp;Humidity;BMP_temperature;BMP_pressure;BME280_temperature;BME280_humidity;BME280_pressure;Samples;Min_cycle;Max_cycle;Signal;HPM_P1;HPM_P2
2022/10/08 00:01:09;;;;;;;6.68;2.08;;;;;;;12.44;87.79;101657.56;6221095;23;20014;-76
2022/10/08 00:03:42;;;;;;;7.53;1.70;;;;;;;12.41;88.80;101653.09;6220578;23;20084;-77
2022/10/08 00:06:25;;;;;;;8.57;2.10;;;;;;;12.40;88.85;101640.91;6193875;23;20104;-76
2022/10/08 00:08:55;;;;;;;5.78;1.60;;;;;;;12.37;89.63;101641.03;6221017;23;20105;-77
2022/10/08 00:11:25;;;;;;;5.57;1.60;;;;;;;12.34;89.88;101642.66;6221011;23;20024;-76
2022/10/08 00:13:53;;;;;;;3.38;1.40;;;;;;;12.33;90.27;101657.94;6221066;23;20021;-77
2022/10/08 00:16:24;;;;;;;1.77;0.90;;;;;;;12.31;90.37;101649.59;6220304;23;20044;-76
2022/10/08 00:18:54;;;;;;;3.28;0.93;;;;;;;12.30;90.08;101653.44;6221032;23;20029;-77
2022/10/08 00:21:24;;;;;;;3.72;1.50;;;;;;;12.29;90.59;101667.22;6221001;23;20036;-76
2022/10/08 00:23:51;;;;;;;5.25;1.20;;;;;;;12.25;91.33;101661.22;6220837;23;20044;-76
2022/10/08 00:26:24;;;;;;;2.33;0.90;;;;;;;12.22;91.61;101654.81;6220635;23;20013;-75
2022/10/08 00:28:53;;;;;;;2.00;1.05;;;;;;;12.20;92.12;101651.84;6220866;23;20017;-75
2022/10/08 00:31:42;;;;;;;2.97;1.30;;;;;;;12.17;92.14;101655.34;6220190;23;20443;-75
2022/10/08 00:34:11;;;;;;;4.93;1.00;;;;;;;12.15;92.45;101657.72;6220866;23;20016;-75
2022/10/08 00:36:39;;;;;;;3.67;0.93;;;;;;;12.11;93.14;101651.72;6220368;23;20455;-75
2022/10/08 00:39:11;;;;;;;5.38;1.30;;;;;;;12.08;92.98;101651.84;6194106;23;20491;-75
2022/10/08 00:41:40;;;;;;;6.50;1.10;;;;;;;12.06;93.22;101660.25;6188517;23;20025;-75
2022/10/08 00:44:44;;;;;;;2.58;1.13;;;;;;;12.04;93.16;101657.28;6188713;23;20100;-75
2022/10/08 00:47:15;;;;;;;6.47;0.95;;;;;;;12.05;93.76;101660.69;6190388;23;20089;-75
2022/10/08 00:49:41;;;;;;;2.95;1.33;;;;;;;12.03;93.97;101666.44;6190476;23;20017;-75
2022/10/08 00:52:08;;;;;;;3.47;1.05;;;;;;;12.01;94.41;101663.47;6190628;23;20082;-75
2022/10/08 00:54:35;;;;;;;3.10;1.00;;;;;;;12.01;94.53;101666.13;6190198;23;20717;-75
2022/10/08 00:57:01;;;;;;;2.85;1.48;;;;;;;12.00;95.04;101668.06;6190754;23;20018;-75
2022/10/08 00:59:28;;;;;;;3.67;1.00;;;;;;;12.00;95.35;101661.97;6189586;23;20057;-75
2022/10/08 01:01:54;;;;;;;1.90;1.00;;;;;;;12.01;95.00;101664.22;6190682;23;20104;-75
2022/10/08 01:04:21;;;;;;;2.67;1.23;;;;;;;12.02;95.24;101664.97;6190706;23;20029;-75
2022/10/08 01:06:55;;;;;;;3.55;1.30;;;;;;;12.03;94.97;101661.13;6190033;23;20041;-75
2022/10/08 01:09:33;;;;;;;4.38;1.20;;;;;;;12.02;95.07;101652.34;6190706;23;20096;-75
2022/10/08 01:11:59;;;;;;;2.53;1.33;;;;;;;11.99;95.26;101655.16;6188594;23;20089;-75
2022/10/08 01:14:34;;;;;;;4.82;1.17;;;;;;;12.00;95.56;101664.63;6185424;23;20255;-76
2022/10/08 01:17:12;;;;;;;3.50;1.17;;;;;;;11.99;95.63;101658.56;6189960;23;20097;-75
2022/10/08 01:20:09;;;;;;;2.58;0.90;;;;;;;12.00;95.71;101657.38;6189785;23;20104;-75
2022/10/08 01:23:05;;;;;;;1.50;0.93;;;;;;;11.99;95.58;101655.91;6188905;23;20077;-75
2022/10/08 01:26:09;;;;;;;3.03;1.02;;;;;;;11.97;95.89;101654.84;6190173;23;20080;-76
2022/10/08 01:29:04;;;;;;;2.53;1.00;;;;;;;11.96;96.15;101658.69;6189403;23;20020;-75
2022/10/08 01:31:36;;;;;;;2.20;1.40;;;;;;;11.94;96.75;101659.09;6190366;23;20439;-75
2022/10/08 01:34:18;;;;;;;1.48;1.00;;;;;;;11.91;96.62;101643.94;6190507;23;20020;-75
2022/10/08 01:36:49;;;;;;;6.03;1.10;;;;;;;11.89;97.00;101650.88;6190166;23;20092;-75
2022/10/08 01:39:20;;;;;;;1.90;1.20;;;;;;;11.88;97.08;101652.06;6190299;23;20045;-75
2022/10/08 01:41:55;;;;;;;4.13;1.17;;;;;;;11.89;96.98;101664.22;6220371;23;20425;-76
2022/10/08 01:44:27;;;;;;;5.50;1.00;;;;;;;11.90;97.08;101658.47;6219966;23;20059;-76
2022/10/08 01:46:58;;;;;;;2.83;1.10;;;;;;;11.87;97.38;101648.63;6220757;23;20092;-76
2022/10/08 01:49:29;;;;;;;3.07;1.10;;;;;;;11.86;97.37;101660.47;6220344;23;20009;-75
2022/10/08 01:52:00;;;;;;;1.83;1.30;;;;;;;11.83;97.67;101664.00;6220637;23;20021;-76
2022/10/08 01:54:30;;;;;;;1.75;1.30;;;;;;;11.83;97.29;101660.59;6193499;23;20105;-75
2022/10/08 01:57:00;;;;;;;2.15;1.00;;;;;;;11.83;97.62;101660.59;6220078;23;20023;-75
2022/10/08 01:59:33;;;;;;;2.80;1.40;;;;;;;11.82;97.82;101653.75;6219374;23;20092;-75
2022/10/08 02:02:16;;;;;;;2.80;1.52;;;;;;;11.81;97.70;101663.66;6220427;23;20112;-75
2022/10/08 02:04:43;;;;;;;1.92;1.52;;;;;;;11.77;98.35;101660.34;6220114;23;20017;-77
2022/10/08 02:07:15;;;;;;;1.85;1.48;;;;;;;11.76;98.02;101664.16;6220404;23;20064;-75
2022/10/08 02:09:45;;;;;;;2.17;1.95;;;;;;;11.74;98.60;101661.19;6220092;23;20447;-75
2022/10/08 02:12:13;;;;;;;6.85;2.65;;;;;;;11.74;98.42;101660.44;6219798;23;20028;-76
2022/10/08 02:14:46;;;;;;;3.25;2.45;;;;;;;11.72;98.90;101666.19;6220179;23;20017;-75
2022/10/08 02:17:34;;;;;;;2.97;2.25;;;;;;;11.71;98.51;101664.69;6220643;23;20087;-75
2022/10/08 02:20:34;;;;;;;5.03;2.95;;;;;;;11.70;98.65;101673.88;6220120;23;20104;-75
2022/10/08 02:23:20;;;;;;;6.18;3.50;;;;;;;11.67;98.82;101674.72;6193382;23;20439;-75
2022/10/08 02:26:02;;;;;;;6.05;3.00;;;;;;;11.65;99.13;101674.38;6220054;23;20088;-75
2022/10/08 02:28:33;;;;;;;3.88;3.33;;;;;;;11.63;99.44;101672.13;6219376;23;20462;-75
2022/10/08 02:31:12;;;;;;;7.43;3.40;;;;;;;11.62;99.56;101675.22;6220058;23;20014;-75
2022/10/08 02:33:44;;;;;;;8.25;3.63;;;;;;;11.60;100.00;101670.31;6219835;23;20089;-75
2022/10/08 02:36:14;;;;;;;9.43;4.63;;;;;;;11.57;100.00;101676.53;6220441;23;20009;-76
2022/10/08 02:38:55;;;;;;;4.82;3.72;;;;;;;11.56;100.00;101679.63;6219734;23;20024;-76
2022/10/08 02:41:27;;;;;;;4.35;3.55;;;;;;;11.53;99.99;101680.47;6219336;23;20415;-75
2022/10/08 02:43:58;;;;;;;5.47;3.83;;;;;;;11.52;99.86;101681.63;6220147;23;20092;-76
2022/10/08 02:46:30;;;;;;;6.43;3.87;;;;;;;11.49;99.96;101674.47;6219701;23;20067;-75
2022/10/08 02:49:00;;;;;;;;;;;;;;;11.46;99.82;101668.06;6220623;23;20213;-75
2022/10/08 02:51:29;;;;;;;6.60;3.25;;;;;;;11.46;100.00;101672.66;6219795;23;19959;-75
2022/10/08 02:53:58;;;;;;;6.65;3.38;;;;;;;11.44;100.00;101661.66;6219952;23;20052;-75
2022/10/08 02:56:33;;;;;;;5.35;4.03;;;;;;;11.43;100.00;101671.56;6219080;23;20040;-75
2022/10/08 02:59:00;;;;;;;5.78;3.70;;;;;;;11.40;100.00;101669.00;6219907;23;20056;-76
2022/10/08 03:01:44;;;;;;;6.15;3.50;;;;;;;11.38;100.00;101676.66;6219490;23;20019;-75
2022/10/08 03:04:23;;;;;;;7.07;3.70;;;;;;;11.36;100.00;101679.75;6220090;23;20044;-76
2022/10/08 03:06:52;;;;;;;3.83;3.30;;;;;;;11.32;100.00;101676.44;6219919;23;20397;-75
2022/10/08 03:09:21;;;;;;;5.20;3.45;;;;;;;11.28;100.00;101687.19;6219967;23;20041;-75
2022/10/08 03:11:48;;;;;;;4.80;3.03;;;;;;;11.25;100.00;101681.94;6220586;23;20021;-75
2022/10/08 03:14:17;;;;;;;4.40;3.33;;;;;;;11.24;100.00;101685.78;6221274;23;20730;-76
2022/10/08 03:16:45;;;;;;;6.40;3.25;;;;;;;11.24;100.00;101693.78;6220553;23;20040;-75
2022/10/08 03:19:17;;;;;;;15.55;2.80;;;;;;;11.21;100.00;101682.03;6194066;23;20032;-76
2022/10/08 03:21:45;;;;;;;6.63;2.88;;;;;;;11.19;100.00;101681.72;6220753;23;20048;-76
2022/10/08 03:24:13;;;;;;;4.25;2.65;;;;;;;11.16;100.00;101689.81;6220547;23;20017;-75
2022/10/08 03:26:41;;;;;;;6.82;2.83;;;;;;;11.13;100.00;101685.31;6220731;23;20092;-75
2022/10/08 03:29:08;;;;;;;7.57;2.65;;;;;;;11.12;100.00;101691.81;6221212;23;20084;-75
2022/10/08 03:31:34;;;;;;;3.65;3.00;;;;;;;11.10;100.00;101702.91;6220591;23;20017;-76
2022/10/08 03:34:01;;;;;;;5.35;3.10;;;;;;;11.08;100.00;101693.81;6221124;23;20526;-75
2022/10/08 03:36:28;;;;;;;4.55;2.75;;;;;;;11.06;100.00;101699.56;6220843;23;20045;-75
2022/10/08 03:38:54;;;;;;;4.30;2.90;;;;;;;11.05;100.00;101702.66;6193772;23;20621;-75
2022/10/08 03:41:21;;;;;;;7.85;2.80;;;;;;;11.06;100.00;101709.47;6220869;23;20020;-75
2022/10/08 03:43:48;;;;;;;6.50;2.80;;;;;;;11.05;100.00;101703.41;6221093;23;20044;-75
2022/10/08 03:46:14;;;;;;;7.60;3.28;;;;;;;11.06;100.00;101706.81;6221101;23;20514;-75
2022/10/08 03:48:41;;;;;;;4.53;2.83;;;;;;;11.04;100.00;101709.91;6193919;23;20024;-75
2022/10/08 03:51:11;;;;;;;4.25;2.60;;;;;;;11.03;100.00;101714.47;6221221;23;20017;-75
2022/10/08 03:53:39;;;;;;;3.13;2.67;;;;;;;11.03;100.00;101719.81;6220043;23;20050;-75
2022/10/08 03:56:10;;;;;;;3.90;2.80;;;;;;;11.03;100.00;101722.47;6221174;23;20088;-76
2022/10/08 03:58:37;;;;;;;3.50;2.70;;;;;;;11.03;100.00;101727.81;6220668;23;20040;-75
2022/10/08 04:01:06;;;;;;;3.67;2.50;;;;;;;11.02;100.00;101726.31;6221038;23;20044;-75
2022/10/08 04:03:33;;;;;;;6.38;2.80;;;;;;;10.99;100.00;101732.47;6220506;23;20017;-75
2022/10/08 04:05:59;;;;;;;3.83;3.08;;;;;;;10.96;100.00;101730.63;6221100;23;20019;-75
2022/10/08 04:08:26;;;;;;;6.60;3.30;;;;;;;10.93;100.00;101736.78;6220105;23;20013;-75
2022/10/08 04:10:53;;;;;;;5.18;3.25;;;;;;;10.93;100.00;101733.38;6221007;23;20023;-75
2022/10/08 04:13:20;;;;;;;5.28;3.30;;;;;;;10.89;100.00;101738.03;6220885;23;20017;-75
2022/10/08 04:15:49;;;;;;;11.82;3.63;;;;;;;10.86;100.00;101734.28;6220628;23;20071;-75
2022/10/08 04:18:16;;;;;;;9.15;3.15;;;;;;;10.82;100.00;101732.88;6220981;23;20020;-75
2022/10/08 04:20:43;;;;;;;4.10;3.17;;;;;;;10.81;100.00;101731.38;6220365;23;20059;-75
2022/10/08 04:23:10;;;;;;;5.90;3.35;;;;;;;10.79;100.00;101731.81;6220291;23;20028;-75
2022/10/08 04:25:36;;;;;;;6.30;3.70;;;;;;;10.75;100.00;101730.41;6193615;23;20088;-75
2022/10/08 04:28:03;;;;;;;7.25;3.33;;;;;;;10.73;100.00;101733.47;6221201;23;20080;-75
2022/10/08 04:30:31;;;;;;;4.60;3.22;;;;;;;10.69;100.00;101735.47;6220663;23;20044;-76
2022/10/08 04:32:57;;;;;;;7.53;3.40;;;;;;;10.64;100.00;101733.31;6220842;23;20122;-75
2022/10/08 04:35:24;;;;;;;7.90;3.65;;;;;;;10.61;100.00;101740.22;6220652;23;20045;-75
2022/10/08 04:37:50;;;;;;;6.03;3.78;;;;;;;10.58;100.00;101740.28;6220063;23;20109;-76
2022/10/08 04:40:17;;;;;;;9.63;3.17;;;;;;;10.56;100.00;101746.03;6220489;23;20017;-76
2022/10/08 04:42:43;;;;;;;5.15;3.63;;;;;;;10.53;100.00;101748.75;6220544;23;20056;-75
2022/10/08 04:45:10;;;;;;;6.65;3.63;;;;;;;10.50;100.00;101749.59;6220811;23;20013;-75
2022/10/08 04:47:36;;;;;;;8.50;3.38;;;;;;;10.45;100.00;101744.75;6220616;23;20036;-75
2022/10/08 04:50:03;;;;;;;7.68;4.10;;;;;;;10.41;100.00;101744.84;6220967;23;20051;-75
2022/10/08 04:52:30;;;;;;;5.60;3.72;;;;;;;10.40;100.00;101761.25;6219741;23;20021;-76
2022/10/08 04:54:57;;;;;;;9.55;4.22;;;;;;;10.37;100.00;101760.16;6220762;23;20017;-75
2022/10/08 04:57:23;;;;;;;5.43;3.70;;;;;;;10.34;100.00;101759.06;6220230;23;20104;-75
2022/10/08 04:59:50;;;;;;;8.95;3.65;;;;;;;10.32;100.00;101758.72;6193910;23;20028;-75
2022/10/08 05:02:36;;;;;;;6.43;3.53;;;;;;;10.31;100.00;101757.22;6220246;23;20023;-76
2022/10/08 05:05:03;;;;;;;5.60;3.38;;;;;;;10.32;100.00;101763.31;6220783;23;20093;-76
2022/10/08 05:07:29;;;;;;;4.70;3.58;;;;;;;10.30;100.00;101763.72;6219854;23;20418;-76
2022/10/08 05:09:56;;;;;;;4.60;3.65;;;;;;;10.29;100.00;101775.50;6220526;23;20088;-76
2022/10/08 05:12:22;;;;;;;8.27;3.88;;;;;;;10.27;100.00;101775.19;6220206;23;20111;-76
2022/10/08 05:14:49;;;;;;;7.97;3.70;;;;;;;10.25;100.00;101779.41;6220585;23;20084;-76
2022/10/08 05:17:15;;;;;;;5.75;3.53;;;;;;;10.25;100.00;101784.72;6220809;23;20017;-75
2022/10/08 05:19:41;;;;;;;7.03;4.07;;;;;;;10.26;100.00;101786.22;6220362;23;20051;-75
2022/10/08 05:22:08;;;;;;;6.13;3.45;;;;;;;10.24;100.00;101780.56;6220060;23;20049;-76
2022/10/08 05:24:34;;;;;;;6.55;3.88;;;;;;;10.22;100.00;101782.88;6220278;23;20489;-76
2022/10/08 05:27:01;;;;;;;4.30;3.60;;;;;;;10.18;100.00;101790.16;6220476;23;20043;-76
2022/10/08 05:29:29;;;;;;;4.95;3.78;;;;;;;10.14;100.00;101787.56;6220135;23;20097;-76
2022/10/08 05:31:56;;;;;;;5.03;3.47;;;;;;;10.13;100.00;101790.63;6219978;23;20466;-76
2022/10/08 05:34:22;;;;;;;7.18;3.70;;;;;;;10.08;100.00;101797.19;6220392;23;20847;-76
2022/10/08 05:36:49;;;;;;;7.25;3.67;;;;;;;10.09;100.00;101796.03;6220158;23;20045;-75
2022/10/08 05:39:15;;;;;;;6.00;3.60;;;;;;;10.05;100.00;101800.66;6219845;23;20021;-76
2022/10/08 05:41:42;;;;;;;7.05;3.60;;;;;;;10.00;100.00;101807.22;6163788;23;20421;-76
2022/10/08 05:44:10;;;;;;;8.63;3.53;;;;;;;9.93;100.00;101806.63;6190298;23;20498;-75
2022/10/08 05:46:36;;;;;;;4.78;3.60;;;;;;;9.90;100.00;101816.16;6189887;23;20472;-76
2022/10/08 05:49:06;;;;;;;7.00;4.20;;;;;;;9.89;100.00;101817.31;6190193;23;20018;-76
2022/10/08 05:51:33;;;;;;;5.25;3.55;;;;;;;9.89;100.00;101827.97;6190726;23;20076;-76
2022/10/08 05:54:00;;;;;;;8.65;3.80;;;;;;;9.86;100.00;101831.44;6189089;23;20085;-76
2022/10/08 05:56:27;;;;;;;11.13;3.97;;;;;;;9.85;100.00;101829.19;6188176;23;20041;-75
2022/10/08 05:58:54;;;;;;;11.10;4.15;;;;;;;9.83;100.00;101837.56;6188348;23;20490;-76
2022/10/08 06:01:31;;;;;;;5.35;3.30;;;;;;;9.82;100.00;101835.31;6188343;23;20041;-76
2022/10/08 06:03:59;;;;;;;6.50;3.88;;;;;;;9.78;100.00;101840.69;6189638;23;20009;-75
2022/10/08 06:06:35;;;;;;;6.90;3.15;;;;;;;9.79;100.00;101844.09;6191177;23;20064;-76
2022/10/08 06:09:02;;;;;;;8.38;3.58;;;;;;;9.78;100.00;101853.97;6190944;23;20037;-75
2022/10/08 06:11:31;;;;;;;4.78;3.22;;;;;;;9.79;100.00;101854.75;6191068;23;20094;-76
2022/10/08 06:13:59;;;;;;;6.70;3.25;;;;;;;9.78;100.00;101867.28;6191106;23;20056;-77
2022/10/08 06:16:27;;;;;;;5.85;3.00;;;;;;;9.77;100.00;101868.44;6191281;23;20018;-74
2022/10/08 06:18:53;;;;;;;5.18;3.05;;;;;;;9.79;100.00;101876.00;6190478;23;20069;-77
2022/10/08 06:21:23;;;;;;;5.85;3.00;;;;;;;9.80;100.00;101872.19;6191125;23;20013;-79
2022/10/08 06:23:52;;;;;;;3.15;2.72;;;;;;;9.83;100.00;101879.38;6190991;23;20468;-79
2022/10/08 06:26:21;;;;;;;8.20;2.28;;;;;;;9.86;100.00;101889.94;6190954;23;20089;-79
2022/10/08 06:28:48;;;;;;;3.92;2.60;;;;;;;9.90;100.00;101895.97;6190973;23;20021;-79
2022/10/08 06:31:16;;;;;;;5.40;2.70;;;;;;;9.92;100.00;101903.53;6190868;23;20477;-76
2022/10/08 06:33:43;;;;;;;3.70;2.30;;;;;;;9.90;100.00;101903.94;6190269;23;20018;-76
2022/10/08 06:36:15;;;;;;;3.72;2.33;;;;;;;9.91;100.00;101910.00;6190966;23;20024;-75
2022/10/08 06:38:41;;;;;;;;;;;;;;;9.92;100.00;101906.19;6191333;23;20612;-76
2022/10/08 06:41:08;;;;;;;3.42;2.13;;;;;;;9.93;100.00;101907.69;6213767;23;19931;-76
2022/10/08 06:43:34;;;;;;;5.97;2.45;;;;;;;9.94;100.00;101914.50;6221287;23;20020;-76
2022/10/08 06:46:05;;;;;;;5.45;2.92;;;;;;;9.97;100.00;101916.38;6222383;23;20020;-76
2022/10/08 06:48:32;;;;;;;5.97;2.28;;;;;;;10.00;100.00;101929.59;6221604;23;20096;-76
2022/10/08 06:51:03;;;;;;;6.15;2.28;;;;;;;10.08;100.00;101932.88;6222427;23;20417;-76
2022/10/08 06:53:30;;;;;;;2.92;2.20;;;;;;;10.19;100.00;101935.34;6222246;23;20084;-77
2022/10/08 06:55:59;;;;;;;13.65;2.03;;;;;;;10.27;100.00;101937.53;6222355;23;20092;-76
2022/10/08 06:58:26;;;;;;;5.85;2.10;;;;;;;10.34;100.00;101941.97;6221992;23;20017;-77
2022/10/08 07:01:05;;;;;;;8.40;1.98;;;;;;;10.43;99.49;101952.06;6221898;23;20061;-76
2022/10/08 07:03:32;;;;;;;5.65;1.73;;;;;;;10.47;99.50;101950.06;6220584;23;20017;-76
2022/10/08 07:06:03;;;;;;;3.92;1.83;;;;;;;10.55;99.41;101949.53;6221578;23;20097;-77
2022/10/08 07:08:30;;;;;;;5.55;2.00;;;;;;;10.61;98.27;101957.81;6222106;23;20017;-76
2022/10/08 07:11:09;;;;;;;3.67;1.73;;;;;;;10.67;98.24;101958.84;6222038;23;20494;-77
2022/10/08 07:13:37;;;;;;;3.33;1.85;;;;;;;10.74;97.69;101963.28;6222188;23;20089;-77
2022/10/08 07:16:09;;;;;;;4.55;1.50;;;;;;;10.80;97.46;101962.38;6195625;23;20033;-77
2022/10/08 07:18:36;;;;;;;5.43;1.65;;;;;;;10.89;97.03;101973.22;6222190;23;20013;-78
2022/10/08 07:21:04;;;;;;;6.07;1.60;;;;;;;10.96;97.13;101983.00;6222205;23;20045;-77
2022/10/08 07:23:31;;;;;;;9.63;2.08;;;;;;;11.04;96.27;101976.34;6222091;23;20099;-77
2022/10/08 07:25:59;;;;;;;6.15;1.92;;;;;;;11.09;95.89;101983.13;6222085;23;20013;-77
2022/10/08 07:28:28;;;;;;;5.88;1.73;;;;;;;11.17;95.38;101987.91;6222071;23;20422;-77
2022/10/08 07:30:54;;;;;;;5.28;1.50;;;;;;;11.27;95.37;101983.47;6221472;23;20429;-77
2022/10/08 07:33:21;;;;;;;2.10;1.25;;;;;;;11.35;94.61;101984.84;6222062;23;20080;-77
2022/10/08 07:35:47;;;;;;;3.42;1.60;;;;;;;11.44;94.18;101977.03;6222212;23;20040;-76
2022/10/08 07:38:17;;;;;;;3.05;1.30;;;;;;;11.52;92.96;101981.03;6222042;23;20017;-77
2022/10/08 07:40:45;;;;;;;4.13;1.45;;;;;;;11.58;91.73;101991.97;6221286;23;20108;-76
2022/10/08 07:43:12;;;;;;;6.00;1.65;;;;;;;11.68;91.43;102004.28;6221831;23;20088;-76
2022/10/08 07:45:44;;;;;;;4.85;1.30;;;;;;;11.75;90.60;102001.47;6221501;23;20472;-75
2022/10/08 07:48:11;;;;;;;5.50;1.27;;;;;;;11.85;90.31;102008.50;6221875;23;20088;-75
2022/10/08 07:50:37;;;;;;;4.60;1.25;;;;;;;11.96;89.27;102013.59;6221894;23;20045;-75
2022/10/08 07:53:04;;;;;;;4.60;1.33;;;;;;;12.09;89.47;102009.06;6221746;23;20040;-75
2022/10/08 07:55:30;;;;;;;3.08;1.30;;;;;;;12.22;89.34;102020.56;6221514;23;20076;-75
2022/10/08 07:57:57;;;;;;;8.82;1.40;;;;;;;12.33;88.83;102021.06;6221853;23;20080;-78
2022/10/08 08:00:23;;;;;;;5.78;1.85;;;;;;;12.46;88.26;102023.75;6221260;23;20404;-78
2022/10/08 08:02:51;;;;;;;4.47;1.20;;;;;;;12.52;86.67;102022.06;6222081;23;20040;-78
2022/10/08 08:05:18;;;;;;;3.67;1.40;;;;;;;12.57;85.71;102034.16;6221912;23;20406;-77
2022/10/08 08:07:45;;;;;;;8.13;1.52;;;;;;;12.67;84.79;102036.56;6220326;23;20481;-76
2022/10/08 08:10:17;;;;;;;3.25;1.23;;;;;;;12.75;83.53;102037.13;6221644;23;20017;-77
2022/10/08 08:12:44;;;;;;;2.35;1.35;;;;;;;12.88;83.85;102040.56;6221751;23;20080;-77
2022/10/08 08:15:12;;;;;;;3.83;1.38;;;;;;;12.88;81.50;102045.91;6221532;23;20017;-77
2022/10/08 08:17:39;;;;;;;5.97;1.40;;;;;;;12.96;81.53;102047.22;6221888;23;20084;-78
2022/10/08 08:20:09;;;;;;;4.45;1.50;;;;;;;13.09;81.16;102055.28;6221676;23;20052;-78
2022/10/08 08:22:36;;;;;;;3.90;1.05;;;;;;;13.20;80.47;102057.66;6194539;23;20097;-78
2022/10/08 08:25:02;;;;;;;8.43;1.25;;;;;;;13.29;80.23;102063.91;6195337;23;20044;-78
2022/10/08 08:27:29;;;;;;;4.88;1.30;;;;;;;13.41;80.07;102059.75;6221737;23;20512;-78
2022/10/08 08:29:55;;;;;;;4.47;1.35;;;;;;;13.53;78.75;102072.38;6219782;23;20025;-78
2022/10/08 08:32:24;;;;;;;8.15;1.17;;;;;;;13.61;77.08;102076.31;6194260;23;20017;-78
2022/10/08 08:34:54;;;;;;;4.22;1.48;;;;;;;13.69;75.41;102074.94;6221403;23;20436;-78
2022/10/08 08:37:20;;;;;;;5.35;1.63;;;;;;;13.85;76.04;102084.06;6221455;23;20097;-78
2022/10/08 08:39:46;;;;;;;7.88;1.50;;;;;;;14.03;74.29;102084.22;6221158;23;20088;-77
2022/10/08 08:42:37;;;;;;;1.85;1.02;;;;;;;14.10;75.11;102089.38;6221176;23;20041;-77
2022/10/08 08:45:17;;;;;;;3.80;1.48;;;;;;;14.17;75.15;102102.53;6220006;23;20084;-78
2022/10/08 08:48:19;;;;;;;5.63;1.15;;;;;;;14.35;72.64;102099.28;6221222;23;20024;-78
2022/10/08 08:50:50;;;;;;;8.07;1.30;;;;;;;14.39;72.22;102112.59;6221461;23;20451;-77
2022/10/08 08:53:17;;;;;;;6.53;1.48;;;;;;;14.19;72.76;102112.81;6221228;23;20024;-76
2022/10/08 08:55:46;;;;;;;4.35;1.55;;;;;;;13.99;73.50;102116.47;6221230;23;20084;-76
2022/10/08 08:58:33;;;;;;;3.08;1.40;;;;;;;13.84;74.01;102125.38;6220427;23;20052;-76
2022/10/08 09:01:06;;;;;;;4.15;1.30;;;;;;;13.69;74.36;102133.06;6194192;23;20032;-77
2022/10/08 09:03:40;;;;;;;2.13;1.20;;;;;;;13.68;74.83;102142.28;6221181;23;20048;-77
2022/10/08 09:06:14;;;;;;;6.53;1.67;;;;;;;13.58;76.06;102144.09;6221258;23;20024;-77
2022/10/08 09:08:57;;;;;;;5.15;1.30;;;;;;;13.50;77.35;102142.03;6221157;23;20047;-76
2022/10/08 09:11:24;;;;;;;5.28;1.70;;;;;;;13.40;77.42;102140.41;6221079;23;20534;-76
2022/10/08 09:13:54;;;;;;;4.30;1.20;;;;;;;13.32;77.28;102147.88;6219997;23;20045;-76
2022/10/08 09:16:21;;;;;;;9.23;2.30;;;;;;;13.30;78.29;102147.56;6220312;23;20013;-77
2022/10/08 09:18:50;;;;;;;3.95;1.27;;;;;;;13.24;77.96;102147.31;6221220;23;20013;-79
2022/10/08 09:21:17;;;;;;;6.38;1.40;;;;;;;13.26;77.58;102141.53;6221087;23;20027;-80
2022/10/08 09:23:46;;;;;;;2.20;1.25;;;;;;;13.48;78.03;102155.84;6220925;23;20084;-77
2022/10/08 09:26:20;;;;;;;4.53;1.35;;;;;;;13.66;76.53;102158.75;6220858;23;20599;-77
2022/10/08 09:28:48;;;;;;;8.65;1.48;;;;;;;13.55;76.84;102154.91;6220388;23;20101;-78
2022/10/08 09:31:46;;;;;;;3.72;1.05;;;;;;;13.54;77.02;102164.84;6220361;23;20048;-78
2022/10/08 09:34:14;;;;;;;4.05;1.88;;;;;;;13.50;76.43;102169.53;6220743;23;20108;-77
2022/10/08 09:36:51;;;;;;;4.63;1.58;;;;;;;13.48;77.50;102161.19;6221157;23;20096;-77
2022/10/08 09:39:26;;;;;;;7.13;1.58;;;;;;;13.47;78.16;102169.63;6220709;23;20446;-77
2022/10/08 09:42:13;;;;;;;4.80;1.35;;;;;;;13.43;77.56;102175.09;6188465;23;20041;-77
2022/10/08 09:44:47;;;;;;;4.13;1.40;;;;;;;13.34;77.56;102177.63;6190781;23;20014;-77
2022/10/08 09:47:19;;;;;;;7.63;1.45;;;;;;;13.27;77.30;102181.22;6190922;23;20018;-77
2022/10/08 09:50:00;;;;;;;4.93;1.50;;;;;;;13.17;78.00;102184.22;6190702;23;20089;-77
2022/10/08 09:52:27;;;;;;;5.03;1.33;;;;;;;13.07;78.29;102179.84;6189542;23;20082;-77
2022/10/08 09:55:02;;;;;;;3.40;1.30;;;;;;;13.02;78.96;102192.56;6190777;23;20068;-77
2022/10/08 09:57:29;;;;;;;4.18;1.27;;;;;;;12.95;79.74;102183.97;6190324;23;20045;-77
2022/10/08 10:00:00;;;;;;;8.43;1.50;;;;;;;12.98;80.01;102188.47;6190447;23;20416;-78
2022/10/08 10:02:33;;;;;;;3.92;1.10;;;;;;;13.24;80.66;102189.34;6190658;23;20024;-77
2022/10/08 10:05:02;;;;;;;7.60;1.40;;;;;;;13.51;79.04;102189.03;6190546;23;20013;-78
2022/10/08 10:07:45;;;;;;;4.47;1.50;;;;;;;13.66;79.31;102192.78;6190579;23;20069;-78
2022/10/08 10:10:20;;;;;;;7.93;1.50;;;;;;;13.83;79.41;102190.78;6189710;23;20093;-77
2022/10/08 10:13:00;;;;;;;6.53;1.40;;;;;;;13.99;78.32;102193.38;6190820;23;20063;-77
2022/10/08 10:15:39;;;;;;;5.72;1.42;;;;;;;14.07;77.77;102197.31;6190754;23;20037;-77
2022/10/08 10:18:12;;;;;;;5.32;1.70;;;;;;;14.13;76.02;102194.88;6190175;23;20096;-78
2022/10/08 10:20:44;;;;;;;3.70;1.50;;;;;;;14.16;75.71;102192.09;6190709;23;20093;-77
2022/10/08 10:23:33;;;;;;;4.38;1.25;;;;;;;14.26;76.26;102203.66;6190720;23;20358;-77
2022/10/08 10:26:20;;;;;;;2.95;1.17;;;;;;;14.32;72.72;102197.34;6189935;23;20096;-77
2022/10/08 10:28:55;;;;;;;4.75;1.30;;;;;;;14.33;72.23;102200.78;6190743;23;20458;-78
2022/10/08 10:31:30;;;;;;;9.18;1.30;;;;;;;14.46;72.05;102198.09;6195954;23;20443;-79
2022/10/08 10:34:03;;;;;;;15.00;3.58;;;;;;;14.40;71.60;102213.16;6190344;23;20125;-84
2022/10/08 10:36:42;;;;;;;8.10;1.70;;;;;;;14.21;69.94;102199.59;6190729;23;20080;-79
2022/10/08 10:39:36;;;;;;;7.43;1.45;;;;;;;14.17;69.08;102211.59;6190673;23;20101;-83
2022/10/08 10:42:32;;;;;;;3.80;0.90;;;;;;;14.14;68.00;102215.88;6190281;23;20021;-79
2022/10/08 10:45:19;;;;;;;2.17;1.13;;;;;;;14.13;67.70;102217.03;6190666;23;20379;-77
2022/10/08 10:47:46;;;;;;;5.53;1.15;;;;;;;14.20;65.44;102213.41;6190525;23;20048;-78
2022/10/08 10:50:14;;;;;;;5.13;1.25;;;;;;;14.26;65.63;102217.81;6190293;23;20080;-80
2022/10/08 10:53:13;;;;;;;5.65;1.40;;;;;;;14.47;67.37;102223.69;6190450;23;20013;-80
2022/10/08 10:55:47;;;;;;;8.07;1.08;;;;;;;14.63;67.23;102220.91;6177835;23;20056;-80
2022/10/08 10:58:33;;;;;;;4.35;1.60;;;;;;;14.74;68.33;102218.63;6189037;23;20083;-78
2022/10/08 11:01:24;;;;;;;4.63;1.30;;;;;;;14.88;68.19;102225.44;6188781;23;20096;-81
2022/10/08 11:04:29;;;;;;;3.80;1.13;;;;;;;14.98;68.54;102221.69;6188671;23;20021;-78
2022/10/08 11:07:13;;;;;;;3.78;1.50;;;;;;;14.99;67.50;102226.59;6098500;23;20259;-79
2022/10/08 11:10:03;;;;;;;1.75;0.93;;;;;;;15.01;66.31;102236.91;6098053;23;20102;-78
2022/10/08 11:12:47;;;;;;;3.75;1.08;;;;;;;15.12;67.92;102231.19;6098833;23;20056;-81
2022/10/08 11:15:30;;;;;;;6.45;2.13;;;;;;;15.24;67.12;102230.38;6074643;23;20435;-80
2022/10/08 11:18:16;;;;;;;6.00;2.22;;;;;;;15.31;67.48;102233.56;6098424;23;20027;-77
2022/10/08 11:21:20;;;;;;;27.25;17.63;;;;;;;15.33;67.99;102233.13;6098316;23;20094;-79
2022/10/08 11:23:55;;;;;;;3.80;2.30;;;;;;;15.25;67.53;102245.28;6097699;23;20027;-79
2022/10/08 11:26:24;;;;;;;5.38;1.50;;;;;;;15.25;65.20;102237.97;6098481;23;20027;-78
2022/10/08 11:29:08;;;;;;;8.82;2.30;;;;;;;15.38;66.22;102240.63;6098081;23;20026;-78
2022/10/08 11:31:48;;;;;;;3.92;1.25;;;;;;;15.35;63.99;102241.50;6099563;23;20051;-79
2022/10/08 11:34:21;;;;;;;7.03;1.27;;;;;;;15.31;64.06;102238.19;6099847;23;20019;-77
2022/10/08 11:37:09;;;;;;;10.25;1.55;;;;;;;15.38;66.20;102247.91;6099832;23;20098;-78
2022/10/08 11:39:57;;;;;;;6.45;2.40;;;;;;;15.51;66.30;102241.31;6099435;23;20027;-77
2022/10/08 11:42:38;;;;;;;3.50;1.52;;;;;;;15.53;65.80;102238.94;6124577;23;20021;-78
2022/10/08 11:45:22;;;;;;;7.05;1.45;;;;;;;15.51;65.75;102235.94;6191489;23;20470;-78
2022/10/08 11:47:53;;;;;;;7.18;1.48;;;;;;;15.58;64.96;102232.31;6189775;23;20018;-79